sensor_id;sensor_type;location;lat;lon;timestamp;pressure;altitude;pressure_sealevel;temperature;humidity
25869;BME280;13688;53.154;18.136;2022-09-09T00:03:11;100580.02;;;11.42;100.00
25869;BME280;13688;53.154;18.136;2022-09-09T00:08:46;100588.36;;;11.39;100.00
25869;BME280;13688;53.154;18.136;2022-09-09T00:14:16;100586.39;;;11.41;100.00
25869;BME280;13688;53.154;18.136;2022-09-09T00:30:49;100588.36;;;11.39;100.00
25869;BME280;13688;53.154;18.136;2022-09-09T00:36:14;100582.48;;;11.34;100.00
25869;BME280;13688;53.154;18.136;2022-09-09T00:42:13;100582.13;;;11.39;100.00
25869;BME280;13688;53.154;18.136;2022-09-09T00:47:46;100581.28;;;11.27;100.00
25869;BME280;13688;53.154;18.136;2022-09-09T00:59:07;100578.84;;;11.24;100.00
25869;BME280;13688;53.154;18.136;2022-09-09T01:04:31;100574.19;;;11.26;100.00
25869;BME280;13688;53.154;18.136;2022-09-09T01:10:07;100582.03;;;11.29;100.00
25869;BME280;13688;53.154;18.136;2022-09-09T01:15:34;100580.06;;;11.31;100.00
25869;BME280;13688;53.154;18.136;2022-09-09T01:21:20;100576.52;;;11.31;100.00
25869;BME280;13688;53.154;18.136;2022-09-09T01:26:52;100578.45;;;11.29;100.00
25869;BME280;13688;53.154;18.136;2022-09-09T01:32:37;100586.30;;;11.32;100.00
25869;BME280;13688;53.154;18.136;2022-09-09T01:38:00;100586.42;;;11.30;100.00
25869;BME280;13688;53.154;18.136;2022-09-09T01:43:22;100592.90;;;11.28;100.00
25869;BME280;13688;53.154;18.136;2022-09-09T01:48:46;100588.98;;;11.32;100.00
25869;BME280;13688;53.154;18.136;2022-09-09T01:54:10;100586.66;;;11.27;100.00
25869;BME280;13688;53.154;18.136;2022-09-09T02:05:34;100583.12;;;11.27;100.00
25869;BME280;13688;53.154;18.136;2022-09-09T02:16:48;100583.12;;;11.27;100.00
25869;BME280;13688;53.154;18.136;2022-09-09T02:22:09;100579.70;;;11.25;100.00
25869;BME280;13688;53.154;18.136;2022-09-09T02:27:33;100579.93;;;11.33;100.00
25869;BME280;13688;53.154;18.136;2022-09-09T02:32:57;100590.95;;;11.30;100.00
25869;BME280;13688;53.154;18.136;2022-09-09T02:38:23;100586.16;;;11.33;100.00
25869;BME280;13688;53.154;18.136;2022-09-09T02:43:49;100587.15;;;11.32;100.00
25869;BME280;13688;53.154;18.136;2022-09-09T02:49:22;100590.20;;;11.39;100.00
25869;BME280;13688;53.154;18.136;2022-09-09T02:54:48;100584.06;;;11.37;100.00
25869;BME280;13688;53.154;18.136;2022-09-09T03:00:14;100590.69;;;11.33;100.00
25869;BME280;13688;53.154;18.136;2022-09-09T03:05:42;100591.55;;;11.33;100.00
25869;BME280;13688;53.154;18.136;2022-09-09T03:11:05;100595.36;;;11.31;100.00
25869;BME280;13688;53.154;18.136;2022-09-09T03:16:28;100597.20;;;11.30;100.00
25869;BME280;13688;53.154;18.136;2022-09-09T03:21:52;100601.59;;;11.31;100.00
25869;BME280;13688;53.154;18.136;2022-09-09T03:27:14;100599.89;;;11.30;100.00
25869;BME280;13688;53.154;18.136;2022-09-09T03:32:37;100600.12;;;11.27;100.00
25869;BME280;13688;53.154;18.136;2022-09-09T03:38:00;100598.67;;;11.23;100.00
25869;BME280;13688;53.154;18.136;2022-09-09T03:43:23;100605.53;;;11.16;100.00
25869;BME280;13688;53.154;18.136;2022-09-09T03:48:47;100597.33;;;11.17;100.00
25869;BME280;13688;53.154;18.136;2022-09-09T03:54:11;100595.63;;;11.16;100.00
25869;BME280;13688;53.154;18.136;2022-09-09T03:59:33;100600.16;;;11.16;100.00
25869;BME280;13688;53.154;18.136;2022-09-09T04:04:55;100591.48;;;11.12;100.00
25869;BME280;13688;53.154;18.136;2022-09-09T04:10:17;100604.81;;;11.14;100.00
25869;BME280;13688;53.154;18.136;2022-09-09T04:15:40;100595.03;;;11.13;100.00
25869;BME280;13688;53.154;18.136;2022-09-09T04:21:09;100604.22;;;11.10;100.00
25869;BME280;13688;53.154;18.136;2022-09-09T04:26:32;100599.69;;;11.11;100.00
25869;BME280;13688;53.154;18.136;2022-09-09T04:31:56;100603.23;;;11.11;100.00
25869;BME280;13688;53.154;18.136;2022-09-09T04:37:18;100609.47;;;11.12;100.00
25869;BME280;13688;53.154;18.136;2022-09-09T04:42:41;100605.53;;;11.16;100.00
25869;BME280;13688;53.154;18.136;2022-09-09T04:48:03;100610.45;;;11.11;100.00
25869;BME280;13688;53.154;18.136;2022-09-09T04:53:26;100615.84;;;11.11;100.00
25869;BME280;13688;53.154;18.136;2022-09-09T04:58:49;100618.14;;;11.15;100.00
25869;BME280;13688;53.154;18.136;2022-09-09T05:04:12;100622.41;;;11.18;100.00
25869;BME280;13688;53.154;18.136;2022-09-09T05:09:35;100628.64;;;11.18;100.00
25869;BME280;13688;53.154;18.136;2022-09-09T05:14:59;100625.59;;;11.23;100.00
25869;BME280;13688;53.154;18.136;2022-09-09T05:20:21;100621.19;;;11.22;100.00
25869;BME280;13688;53.154;18.136;2022-09-09T05:25:43;100627.30;;;11.24;100.00
25869;BME280;13688;53.154;18.136;2022-09-09T05:31:14;100632.19;;;11.30;100.00
25869;BME280;13688;53.154;18.136;2022-09-09T05:36:38;100636.09;;;11.26;100.00
25869;BME280;13688;53.154;18.136;2022-09-09T05:42:01;100623.26;;;11.30;100.00
25869;BME280;13688;53.154;18.136;2022-09-09T05:47:24;100637.90;;;11.37;100.00
25869;BME280;13688;53.154;18.136;2022-09-09T05:52:46;100638.03;;;11.35;100.00
25869;BME280;13688;53.154;18.136;2022-09-09T05:58:11;100636.78;;;11.51;100.00
25869;BME280;13688;53.154;18.136;2022-09-09T06:03:34;100637.23;;;11.56;100.00
25869;BME280;13688;53.154;18.136;2022-09-09T06:08:58;100635.88;;;11.61;100.00
25869;BME280;13688;53.154;18.136;2022-09-09T06:14:21;100646.39;;;11.64;100.00
25869;BME280;13688;53.154;18.136;2022-09-09T06:19:44;100651.27;;;11.70;100.00
25869;BME280;13688;53.154;18.136;2022-09-09T06:25:08;100663.27;;;11.66;100.00
25869;BME280;13688;53.154;18.136;2022-09-09T06:30:31;100661.78;;;11.73;100.00
25869;BME280;13688;53.154;18.136;2022-09-09T06:35:58;100661.06;;;11.71;100.00
25869;BME280;13688;53.154;18.136;2022-09-09T06:41:24;100661.06;;;11.71;100.00
25869;BME280;13688;53.154;18.136;2022-09-09T06:46:48;100673.41;;;11.74;100.00
25869;BME280;13688;53.154;18.136;2022-09-09T06:52:11;100663.02;;;11.81;100.00
25869;BME280;13688;53.154;18.136;2022-09-09T06:57:34;100663.87;;;11.81;100.00
25869;BME280;13688;53.154;18.136;2022-09-09T07:02:58;100665.08;;;11.88;100.00
25869;BME280;13688;53.154;18.136;2022-09-09T07:08:21;100667.87;;;11.87;100.00
25869;BME280;13688;53.154;18.136;2022-09-09T07:13:44;100670.92;;;11.93;100.00
25869;BME280;13688;53.154;18.136;2022-09-09T07:19:07;100686.31;;;12.02;100.00
25869;BME280;13688;53.154;18.136;2022-09-09T07:24:29;100681.42;;;11.96;100.00
25869;BME280;13688;53.154;18.136;2022-09-09T07:29:53;100684.34;;;12.04;100.00
25869;BME280;13688;53.154;18.136;2022-09-09T07:35:16;100694.03;;;12.07;100.00
25869;BME280;13688;53.154;18.136;2022-09-09T07:40:39;100695.81;;;12.18;100.00
25869;BME280;13688;53.154;18.136;2022-09-09T07:46:05;100694.63;;;12.31;100.00
25869;BME280;13688;53.154;18.136;2022-09-09T07:51:32;100700.36;;;12.38;100.00
25869;BME280;13688;53.154;18.136;2022-09-09T07:56:57;100705.09;;;12.46;100.00
25869;BME280;13688;53.154;18.136;2022-09-09T08:02:19;100716.67;;;12.57;100.00
25869;BME280;13688;53.154;18.136;2022-09-09T08:07:41;100720.72;;;12.73;100.00
25869;BME280;13688;53.154;18.136;2022-09-09T08:13:03;100731.70;;;12.81;100.00
25869;BME280;13688;53.154;18.136;2022-09-09T08:18:29;100733.69;;;12.79;100.00
25869;BME280;13688;53.154;18.136;2022-09-09T08:23:52;100737.87;;;12.93;100.00
25869;BME280;13688;53.154;18.136;2022-09-09T08:29:17;100740.70;;;12.91;100.00
25869;BME280;13688;53.154;18.136;2022-09-09T08:34:40;100740.33;;;12.96;100.00
25869;BME280;13688;53.154;18.136;2022-09-09T08:40:04;100749.89;;;13.09;100.00
25869;BME280;13688;53.154;18.136;2022-09-09T08:45:41;100750.03;;;13.08;100.00
25869;BME280;13688;53.154;18.136;2022-09-09T08:50:53;100752.86;;;13.27;100.00
25869;BME280;13688;53.154;18.136;2022-09-09T08:56:21;100756.80;;;13.54;100.00
25869;BME280;13688;53.154;18.136;2022-09-09T09:07:49;100762.11;;;13.74;100.00
25869;BME280;13688;53.154;18.136;2022-09-09T09:13:38;100774.06;;;13.72;100.00
25869;BME280;13688;53.154;18.136;2022-09-09T09:19:00;100774.66;;;13.85;100.00
25869;BME280;13688;53.154;18.136;2022-09-09T09:24:39;100773.53;;;13.97;100.00
25869;BME280;13688;53.154;18.136;2022-09-09T09:30:18;100763.19;;;14.22;100.00
25869;BME280;13688;53.154;18.136;2022-09-09T09:35:54;100767.61;;;14.62;100.00
25869;BME280;13688;53.154;18.136;2022-09-09T09:41:38;100772.74;;;14.45;100.00
25869;BME280;13688;53.154;18.136;2022-09-09T09:46:48;100763.77;;;14.54;100.00
25869;BME280;13688;53.154;18.136;2022-09-09T09:52:12;100771.33;;;14.51;100.00
25869;BME280;13688;53.154;18.136;2022-09-09T09:57:40;100789.12;;;14.53;99.62
25869;BME280;13688;53.154;18.136;2022-09-09T10:03:13;100778.45;;;14.52;100.00
25869;BME280;13688;53.154;18.136;2022-09-09T10:08:33;100781.14;;;14.62;100.00
25869;BME280;13688;53.154;18.136;2022-09-09T10:14:20;100770.42;;;14.89;100.00
25869;BME280;13688;53.154;18.136;2022-09-09T10:31:36;100776.81;;;15.44;94.86
25869;BME280;13688;53.154;18.136;2022-09-09T10:36:58;100783.88;;;15.18;91.50
25869;BME280;13688;53.154;18.136;2022-09-09T10:42:26;100788.92;;;15.40;93.57
25869;BME280;13688;53.154;18.136;2022-09-09T10:53:53;100798.25;;;15.28;91.86
25869;BME280;13688;53.154;18.136;2022-09-09T10:59:20;100795.05;;;15.42;93.41
25869;BME280;13688;53.154;18.136;2022-09-09T11:04:50;100803.63;;;15.38;93.38
25869;BME280;13688;53.154;18.136;2022-09-09T11:10:44;100797.75;;;15.42;92.91
25869;BME280;13688;53.154;18.136;2022-09-09T11:16:17;100820.16;;;15.44;92.17
25869;BME280;13688;53.154;18.136;2022-09-09T11:21:47;100825.23;;;15.57;92.37
25869;BME280;13688;53.154;18.136;2022-09-09T11:27:22;100834.80;;;15.52;91.41
25869;BME280;13688;53.154;18.136;2022-09-09T11:44:57;100835.56;;;15.81;90.11
25869;BME280;13688;53.154;18.136;2022-09-09T11:50:36;100838.69;;;16.14;86.02
25869;BME280;13688;53.154;18.136;2022-09-09T11:56:22;100831.41;;;16.68;84.82
25869;BME280;13688;53.154;18.136;2022-09-09T12:02:09;100828.19;;;16.82;82.05
25869;BME280;13688;53.154;18.136;2022-09-09T12:07:33;100835.50;;;17.07;79.28
25869;BME280;13688;53.154;18.136;2022-09-09T12:13:16;100835.05;;;17.12;79.03
25869;BME280;13688;53.154;18.136;2022-09-09T12:18:43;100833.80;;;18.35;74.74
25869;BME280;13688;53.154;18.136;2022-09-09T12:24:08;100823.91;;;19.39;70.42
25869;BME280;13688;53.154;18.136;2022-09-09T12:29:40;100819.55;;;20.17;66.37
25869;BME280;13688;53.154;18.136;2022-09-09T12:40:39;100804.81;;;20.80;61.91
25869;BME280;13688;53.154;18.136;2022-09-09T12:46:11;100797.71;;;20.71;61.48
25869;BME280;13688;53.154;18.136;2022-09-09T12:51:38;100792.50;;;20.61;61.70
25869;BME280;13688;53.154;18.136;2022-09-09T12:57:00;100802.93;;;20.80;62.74
25869;BME280;13688;53.154;18.136;2022-09-09T13:02:27;100803.53;;;21.28;59.65
25869;BME280;13688;53.154;18.136;2022-09-09T13:07:50;100789.23;;;22.21;55.17
25869;BME280;13688;53.154;18.136;2022-09-09T13:13:26;100797.30;;;21.93;56.47
25869;BME280;13688;53.154;18.136;2022-09-09T13:18:49;100779.98;;;22.44;54.00
25869;BME280;13688;53.154;18.136;2022-09-09T13:29:57;100770.72;;;24.33;49.75
25869;BME280;13688;53.154;18.136;2022-09-09T13:41:32;100759.52;;;23.80;49.97
25869;BME280;13688;53.154;18.136;2022-09-09T13:47:15;100756.22;;;23.56;50.10
25869;BME280;13688;53.154;18.136;2022-09-09T13:52:35;100756.47;;;23.61;51.25
25869;BME280;13688;53.154;18.136;2022-09-09T13:58:00;100762.69;;;23.83;50.77
25869;BME280;13688;53.154;18.136;2022-09-09T14:03:27;100765.34;;;23.63;50.49
25869;BME280;13688;53.154;18.136;2022-09-09T14:08:49;100764.52;;;23.35;50.23
25869;BME280;13688;53.154;18.136;2022-09-09T14:14:12;100765.09;;;23.58;51.59
25869;BME280;13688;53.154;18.136;2022-09-09T14:19:35;100763.14;;;23.52;51.30
25869;BME280;13688;53.154;18.136;2022-09-09T14:24:57;100769.94;;;23.56;51.57
25869;BME280;13688;53.154;18.136;2022-09-09T14:30:22;100762.76;;;23.55;51.21
25869;BME280;13688;53.154;18.136;2022-09-09T14:35:44;100762.13;;;24.01;50.54
25869;BME280;13688;53.154;18.136;2022-09-09T14:41:09;100755.60;;;24.09;50.70
25869;BME280;13688;53.154;18.136;2022-09-09T14:46:33;100755.71;;;23.81;50.40
25869;BME280;13688;53.154;18.136;2022-09-09T14:51:56;100758.61;;;23.03;52.38
25869;BME280;13688;53.154;18.136;2022-09-09T14:57:19;100754.83;;;22.83;52.34
25869;BME280;13688;53.154;18.136;2022-09-09T15:02:42;100754.23;;;23.09;53.69
25869;BME280;13688;53.154;18.136;2022-09-09T15:08:06;100756.80;;;23.45;52.30
25869;BME280;13688;53.154;18.136;2022-09-09T15:13:28;100751.72;;;22.86;53.59
25869;BME280;13688;53.154;18.136;2022-09-09T15:18:53;100757.20;;;22.65;53.54
25869;BME280;13688;53.154;18.136;2022-09-09T15:24:16;100764.16;;;21.88;55.76
25869;BME280;13688;53.154;18.136;2022-09-09T15:29:39;100754.67;;;21.40;57.60
25869;BME280;13688;53.154;18.136;2022-09-09T15:35:01;100759.98;;;20.89;59.71
25869;BME280;13688;53.154;18.136;2022-09-09T15:40:24;100759.77;;;20.53;61.06
25869;BME280;13688;53.154;18.136;2022-09-09T15:45:46;100747.34;;;20.50;61.26
25869;BME280;13688;53.154;18.136;2022-09-09T15:51:11;100760.38;;;20.63;60.82
25869;BME280;13688;53.154;18.136;2022-09-09T15:56:36;100755.47;;;20.58;61.48
25869;BME280;13688;53.154;18.136;2022-09-09T16:02:00;100759.20;;;20.12;61.97
25869;BME280;13688;53.154;18.136;2022-09-09T16:07:23;100758.45;;;19.56;64.55
25869;BME280;13688;53.154;18.136;2022-09-09T16:12:46;100767.35;;;19.41;65.04
25869;BME280;13688;53.154;18.136;2022-09-09T16:18:08;100765.05;;;18.49;68.16
25869;BME280;13688;53.154;18.136;2022-09-09T16:23:31;100778.22;;;17.87;70.79
25869;BME280;13688;53.154;18.136;2022-09-09T16:28:55;100769.65;;;17.73;72.24
25869;BME280;13688;53.154;18.136;2022-09-09T16:34:18;100767.16;;;17.54;73.42
25869;BME280;13688;53.154;18.136;2022-09-09T16:39:43;100765.92;;;17.40;73.91
25869;BME280;13688;53.154;18.136;2022-09-09T16:45:07;100772.49;;;17.30;74.76
25869;BME280;13688;53.154;18.136;2022-09-09T16:50:30;100769.13;;;16.84;75.57
25869;BME280;13688;53.154;18.136;2022-09-09T16:55:54;100777.69;;;16.53;77.86
25869;BME280;13688;53.154;18.136;2022-09-09T17:01:28;100779.95;;;16.22;79.88
25869;BME280;13688;53.154;18.136;2022-09-09T17:06:48;100785.34;;;16.05;81.74
25869;BME280;13688;53.154;18.136;2022-09-09T17:12:11;100793.83;;;15.92;82.57
25869;BME280;13688;53.154;18.136;2022-09-09T17:17:34;100799.52;;;15.71;83.59
25869;BME280;13688;53.154;18.136;2022-09-09T17:22:59;100808.98;;;15.57;84.76
25869;BME280;13688;53.154;18.136;2022-09-09T17:28:25;100808.59;;;15.42;85.72
25869;BME280;13688;53.154;18.136;2022-09-09T17:33:50;100805.80;;;15.25;87.01
25869;BME280;13688;53.154;18.136;2022-09-09T17:39:14;100797.84;;;15.13;88.14
25869;BME280;13688;53.154;18.136;2022-09-09T17:44:36;100805.14;;;15.03;89.24
25869;BME280;13688;53.154;18.136;2022-09-09T17:49:59;100809.58;;;14.95;90.32
25869;BME280;13688;53.154;18.136;2022-09-09T17:55:22;100816.02;;;14.84;91.43
25869;BME280;13688;53.154;18.136;2022-09-09T18:00:45;100817.72;;;14.75;92.33
25869;BME280;13688;53.154;18.136;2022-09-09T18:06:10;100830.27;;;14.67;93.39
25869;BME280;13688;53.154;18.136;2022-09-09T18:11:39;100832.27;;;14.55;93.33
25869;BME280;13688;53.154;18.136;2022-09-09T18:17:04;100841.97;;;14.48;93.52
25869;BME280;13688;53.154;18.136;2022-09-09T18:22:26;100840.78;;;14.41;93.83
25869;BME280;13688;53.154;18.136;2022-09-09T18:27:49;100842.48;;;14.32;94.76
25869;BME280;13688;53.154;18.136;2022-09-09T18:33:11;100847.03;;;14.31;95.37
25869;BME280;13688;53.154;18.136;2022-09-09T18:38:33;100847.73;;;14.24;95.91
25869;BME280;13688;53.154;18.136;2022-09-09T18:43:59;100865.35;;;14.18;97.16
25869;BME280;13688;53.154;18.136;2022-09-09T18:49:26;100853.83;;;14.16;98.34
25869;BME280;13688;53.154;18.136;2022-09-09T18:54:50;100854.41;;;14.10;98.84
25869;BME280;13688;53.154;18.136;2022-09-09T19:00:12;100852.55;;;14.11;99.98
25869;BME280;13688;53.154;18.136;2022-09-09T19:05:35;100855.80;;;14.04;100.00
25869;BME280;13688;53.154;18.136;2022-09-09T19:11:00;100841.00;;;14.09;100.00
25869;BME280;13688;53.154;18.136;2022-09-09T19:16:26;100859.50;;;14.03;100.00
25869;BME280;13688;53.154;18.136;2022-09-09T19:21:54;100848.37;;;13.97;100.00
25869;BME280;13688;53.154;18.136;2022-09-09T19:27:18;100846.09;;;13.92;100.00
25869;BME280;13688;53.154;18.136;2022-09-09T19:32:41;100855.48;;;13.98;100.00
25869;BME280;13688;53.154;18.136;2022-09-09T19:38:04;100856.23;;;14.00;100.00
25869;BME280;13688;53.154;18.136;2022-09-09T19:43:27;100848.11;;;14.00;100.00
25869;BME280;13688;53.154;18.136;2022-09-09T19:48:51;100851.53;;;14.02;100.00
25869;BME280;13688;53.154;18.136;2022-09-09T19:54:16;100863.05;;;14.04;100.00
25869;BME280;13688;53.154;18.136;2022-09-09T19:59:38;100876.28;;;14.07;100.00
25869;BME280;13688;53.154;18.136;2022-09-09T20:05:00;100874.04;;;14.12;100.00
25869;BME280;13688;53.154;18.136;2022-09-09T20:10:22;100875.89;;;14.12;100.00
25869;BME280;13688;53.154;18.136;2022-09-09T20:15:45;100875.46;;;14.16;100.00
25869;BME280;13688;53.154;18.136;2022-09-09T20:21:16;100879.02;;;14.17;100.00
25869;BME280;13688;53.154;18.136;2022-09-09T20:26:44;100873.75;;;14.15;100.00
25869;BME280;13688;53.154;18.136;2022-09-09T20:32:07;100875.75;;;14.13;100.00
25869;BME280;13688;53.154;18.136;2022-09-09T20:37:34;100887.98;;;14.17;100.00
25869;BME280;13688;53.154;18.136;2022-09-09T20:42:55;100874.61;;;14.16;100.00
25869;BME280;13688;53.154;18.136;2022-09-09T20:48:19;100891.43;;;14.19;100.00
25869;BME280;13688;53.154;18.136;2022-09-09T20:53:42;100885.17;;;14.19;100.00
25869;BME280;13688;53.154;18.136;2022-09-09T20:59:14;100893.99;;;14.21;100.00
25869;BME280;13688;53.154;18.136;2022-09-09T21:04:53;100880.49;;;14.30;100.00
25869;BME280;13688;53.154;18.136;2022-09-09T21:10:15;100889.58;;;14.20;100.00
25869;BME280;13688;53.154;18.136;2022-09-09T21:15:38;100886.13;;;14.18;100.00
25869;BME280;13688;53.154;18.136;2022-09-09T21:21:01;100886.98;;;14.18;100.00
25869;BME280;13688;53.154;18.136;2022-09-09T21:26:24;100899.55;;;14.19;100.00
25869;BME280;13688;53.154;18.136;2022-09-09T21:31:48;100890.44;;;14.20;100.00
25869;BME280;13688;53.154;18.136;2022-09-09T21:37:12;100885.17;;;14.19;100.00
25869;BME280;13688;53.154;18.136;2022-09-09T21:42:35;100880.61;;;14.19;100.00
25869;BME280;13688;53.154;18.136;2022-09-09T21:47:57;100880.87;;;14.16;100.00
25869;BME280;13688;53.154;18.136;2022-09-09T21:53:21;100873.75;;;14.15;100.00
25869;BME280;13688;53.154;18.136;2022-09-09T21:58:44;100868.63;;;14.12;100.00
25869;BME280;13688;53.154;18.136;2022-09-09T22:04:13;100863.94;;;14.14;100.00
25869;BME280;13688;53.154;18.136;2022-09-09T22:09:35;100858.67;;;14.13;100.00
25869;BME280;13688;53.154;18.136;2022-09-09T22:14:58;100858.81;;;14.11;100.00
25869;BME280;13688;53.154;18.136;2022-09-09T22:20:21;100858.81;;;14.11;100.00
25869;BME280;13688;53.154;18.136;2022-09-09T22:25:48;100854.41;;;14.10;100.00
25869;BME280;13688;53.154;18.136;2022-09-09T22:31:12;100856.11;;;14.11;100.00
25869;BME280;13688;53.154;18.136;2022-09-09T22:36:35;100849.84;;;14.11;100.00
25869;BME280;13688;53.154;18.136;2022-09-09T22:42:00;100851.70;;;14.10;100.00
25869;BME280;13688;53.154;18.136;2022-09-09T22:47:23;100849.99;;;14.09;100.00
25869;BME280;13688;53.154;18.136;2022-09-09T22:52:46;100851.55;;;14.12;100.00
25869;BME280;13688;53.154;18.136;2022-09-09T22:58:08;100841.59;;;14.12;100.00
25869;BME280;13688;53.154;18.136;2022-09-09T23:03:32;100843.44;;;14.12;100.00
25869;BME280;13688;53.154;18.136;2022-09-09T23:09:00;100837.18;;;14.11;100.00
25869;BME280;13688;53.154;18.136;2022-09-09T23:14:22;100833.48;;;14.12;100.00
25869;BME280;13688;53.154;18.136;2022-09-09T23:19:45;100830.92;;;14.11;100.00
25869;BME280;13688;53.154;18.136;2022-09-09T23:25:08;100827.92;;;14.14;100.00
25869;BME280;13688;53.154;18.136;2022-09-09T23:30:31;100829.07;;;14.11;100.00
25869;BME280;13688;53.154;18.136;2022-09-09T23:36:00;100827.22;;;14.12;100.00
25869;BME280;13688;53.154;18.136;2022-09-09T23:41:24;100825.52;;;14.11;100.00
25869;BME280;13688;53.154;18.136;2022-09-09T23:46:48;100826.51;;;14.10;100.00
25869;BME280;13688;53.154;18.136;2022-09-09T23:52:11;100827.47;;;14.09;100.00
25869;BME280;13688;53.154;18.136;2022-09-09T23:57:35;100817.80;;;14.06;100.00
